createdAt,value
2017-11-29T00:00:21.769Z,23.03
2017-11-29T00:02:47.994Z,21.60
2017-11-29T00:05:14.383Z,21.50
2017-11-29T00:07:40.797Z,21.47
2017-11-29T00:10:07.224Z,21.10
2017-11-29T00:12:33.594Z,21.17
2017-11-29T00:15:00.051Z,27.40
2017-11-29T00:17:26.530Z,26.47
2017-11-29T00:19:53.005Z,27.03
2017-11-29T00:22:19.490Z,22.57
2017-11-29T00:24:46.005Z,23.30
2017-11-29T00:27:12.435Z,22.37
2017-11-29T00:29:38.902Z,22.27
2017-11-29T00:32:05.334Z,19.90
2017-11-29T00:34:31.790Z,17.97
2017-11-29T00:36:58.362Z,15.60
2017-11-29T00:39:24.839Z,15.63
2017-11-29T00:41:51.319Z,15.30
2017-11-29T00:44:17.903Z,13.73
2017-11-29T00:46:44.340Z,13.60
2017-11-29T00:49:10.792Z,14.07
2017-11-29T00:51:37.305Z,12.53
2017-11-29T00:54:03.777Z,13.10
2017-11-29T00:56:30.226Z,12.50
2017-11-29T00:58:56.914Z,12.23
2017-11-29T01:01:23.377Z,12.17
2017-11-29T01:03:49.849Z,11.83
2017-11-29T01:06:16.365Z,12.07
2017-11-29T01:08:42.790Z,11.80
2017-11-29T01:11:09.230Z,12.50
2017-11-29T01:13:35.702Z,11.50
2017-11-29T01:16:02.159Z,10.80
2017-11-29T01:18:28.578Z,11.43
2017-11-29T01:20:55.221Z,11.10
2017-11-29T01:23:21.758Z,12.13
2017-11-29T01:25:48.293Z,11.07
2017-11-29T01:28:14.780Z,11.80
2017-11-29T01:30:41.195Z,11.97
2017-11-29T01:33:07.633Z,10.50
2017-11-29T01:35:34.098Z,11.83
2017-11-29T01:38:00.571Z,11.63
2017-11-29T01:40:26.982Z,11.47
2017-11-29T01:42:53.610Z,11.30
2017-11-29T01:45:20.068Z,11.33
2017-11-29T01:47:46.801Z,11.63
2017-11-29T01:50:13.385Z,11.60
2017-11-29T01:52:39.825Z,10.90
2017-11-29T01:55:06.350Z,11.73
2017-11-29T01:57:32.886Z,10.97
2017-11-29T01:59:59.357Z,10.83
2017-11-29T02:02:25.793Z,10.70
2017-11-29T02:04:52.311Z,10.33
2017-11-29T02:07:18.736Z,11.17
2017-11-29T02:09:45.182Z,11.60
2017-11-29T02:12:11.650Z,11.67
2017-11-29T02:14:38.063Z,11.53
2017-11-29T02:17:04.499Z,11.80
2017-11-29T02:19:31.034Z,12.47
2017-11-29T02:21:57.694Z,13.07
2017-11-29T02:24:24.433Z,14.73
2017-11-29T02:26:51.031Z,14.17
2017-11-29T02:29:17.606Z,13.93
2017-11-29T02:31:44.180Z,12.70
2017-11-29T02:34:10.758Z,12.07
2017-11-29T02:36:37.344Z,12.60
2017-11-29T02:39:03.970Z,12.43
2017-11-29T02:41:42.546Z,17.63
2017-11-29T02:44:08.983Z,14.63
2017-11-29T02:46:35.577Z,15.33
2017-11-29T02:49:02.130Z,16.03
2017-11-29T02:51:28.668Z,16.40
2017-11-29T02:53:55.253Z,17.10
2017-11-29T02:56:21.890Z,16.13
2017-11-29T02:58:48.501Z,17.00
2017-11-29T03:01:15.063Z,18.13
2017-11-29T03:03:41.651Z,18.90
2017-11-29T03:06:08.170Z,20.10
2017-11-29T03:08:34.649Z,22.00
2017-11-29T03:11:01.210Z,23.80
2017-11-29T03:13:27.693Z,21.87
2017-11-29T03:15:54.116Z,22.07
2017-11-29T03:18:20.613Z,25.10
2017-11-29T03:20:47.026Z,24.20
2017-11-29T03:23:13.578Z,24.10
2017-11-29T03:25:40.074Z,22.47
2017-11-29T03:28:06.546Z,19.67
2017-11-29T03:30:32.964Z,15.73
2017-11-29T03:32:59.516Z,15.37
2017-11-29T03:35:25.935Z,15.30
2017-11-29T03:37:52.391Z,14.87
2017-11-29T03:40:18.890Z,14.77
2017-11-29T03:42:45.335Z,15.03
2017-11-29T03:45:11.759Z,14.87
2017-11-29T03:47:38.246Z,16.17
2017-11-29T03:50:04.754Z,19.00
2017-11-29T03:52:31.161Z,18.77
2017-11-29T03:54:57.617Z,16.67
2017-11-29T03:57:24.441Z,17.03
2017-11-29T03:59:50.846Z,16.43
2017-11-29T04:02:17.234Z,15.93
2017-11-29T04:04:43.604Z,15.70
2017-11-29T04:07:10.101Z,15.67
2017-11-29T04:09:36.627Z,15.80
2017-11-29T04:12:03.037Z,15.37
2017-11-29T04:14:29.431Z,16.87
2017-11-29T04:16:55.923Z,14.63
2017-11-29T04:19:22.373Z,20.00
2017-11-29T04:21:48.900Z,22.70
2017-11-29T04:24:15.337Z,23.10
2017-11-29T04:26:41.866Z,21.47
2017-11-29T04:29:08.278Z,17.80
2017-11-29T04:31:34.682Z,18.37
2017-11-29T04:34:01.009Z,18.63
2017-11-29T04:36:27.353Z,22.70
2017-11-29T04:38:53.729Z,22.10
2017-11-29T04:41:20.054Z,22.87
2017-11-29T04:43:46.457Z,23.30
2017-11-29T04:46:12.837Z,21.57
2017-11-29T04:48:39.297Z,19.00
2017-11-29T04:51:05.751Z,19.10
2017-11-29T04:53:32.266Z,19.03
2017-11-29T04:55:58.706Z,20.17
2017-11-29T04:58:25.116Z,21.07
2017-11-29T05:00:51.662Z,25.93
2017-11-29T05:03:18.140Z,23.57
2017-11-29T05:05:44.621Z,24.27
2017-11-29T05:08:11.103Z,24.90
2017-11-29T05:10:37.482Z,26.57
2017-11-29T05:13:03.887Z,26.50
2017-11-29T05:15:30.382Z,28.53
2017-11-29T05:17:56.785Z,27.73
2017-11-29T05:20:23.257Z,31.87
2017-11-29T05:22:49.745Z,38.13
2017-11-29T05:25:16.161Z,33.67
2017-11-29T05:27:42.635Z,31.37
2017-11-29T05:30:09.151Z,30.03
2017-11-29T05:32:35.601Z,27.70
2017-11-29T05:35:02.061Z,25.47
2017-11-29T05:37:28.511Z,24.27
2017-11-29T05:39:54.929Z,25.30
2017-11-29T05:42:21.375Z,22.03
2017-11-29T05:44:47.866Z,87.07
2017-11-29T05:47:14.293Z,71.17
2017-11-29T05:49:40.744Z,50.07
2017-11-29T05:52:07.213Z,30.53
2017-11-29T05:54:33.653Z,25.33
2017-11-29T05:57:00.081Z,26.40
2017-11-29T05:59:26.508Z,32.50
2017-11-29T06:01:52.942Z,38.23
2017-11-29T06:04:19.330Z,36.33
2017-11-29T06:06:45.821Z,35.73
2017-11-29T06:09:12.470Z,33.10
2017-11-29T06:11:38.892Z,27.57
2017-11-29T06:14:05.398Z,28.27
2017-11-29T06:16:31.948Z,28.63
2017-11-29T06:18:58.519Z,29.37
2017-11-29T06:21:25.086Z,33.57
2017-11-29T06:23:51.558Z,31.73
2017-11-29T06:26:18.099Z,28.87
2017-11-29T06:28:44.662Z,30.40
2017-11-29T06:31:11.277Z,37.07
2017-11-29T06:33:37.807Z,32.03
2017-11-29T06:36:04.319Z,34.93
2017-11-29T06:38:30.984Z,37.60
2017-11-29T06:40:57.458Z,41.80
2017-11-29T06:43:23.838Z,45.20
2017-11-29T06:45:50.165Z,57.83
2017-11-29T06:48:16.498Z,49.57
2017-11-29T06:50:42.945Z,51.33
2017-11-29T06:53:09.278Z,57.60
2017-11-29T06:55:35.748Z,60.03
2017-11-29T06:58:02.295Z,65.17
2017-11-29T07:00:28.700Z,66.20
2017-11-29T07:02:55.118Z,69.80
2017-11-29T07:05:21.542Z,60.10
2017-11-29T07:07:47.957Z,63.43
2017-11-29T07:10:16.434Z,61.87
2017-11-29T07:12:43.305Z,62.17
2017-11-29T07:15:09.654Z,55.70
2017-11-29T07:17:35.990Z,54.73
2017-11-29T07:20:02.393Z,52.90
2017-11-29T07:22:28.770Z,53.70
2017-11-29T07:24:55.181Z,51.90
2017-11-29T07:27:21.554Z,52.17
2017-11-29T07:29:47.880Z,47.57
2017-11-29T07:32:14.253Z,45.90
2017-11-29T07:34:40.744Z,47.13
2017-11-29T07:37:07.144Z,44.83
2017-11-29T07:39:33.506Z,45.50
2017-11-29T07:41:59.873Z,40.17
2017-11-29T07:44:26.265Z,46.00
2017-11-29T07:46:52.614Z,43.23
2017-11-29T07:49:19.056Z,46.50
2017-11-29T07:51:45.401Z,47.00
2017-11-29T07:54:11.726Z,45.80
2017-11-29T07:56:38.096Z,49.03
2017-11-29T07:59:04.430Z,44.50
2017-11-29T08:01:30.770Z,41.33
2017-11-29T08:03:57.174Z,42.30
2017-11-29T08:06:23.537Z,46.43
2017-11-29T08:08:49.910Z,41.10
2017-11-29T08:11:16.288Z,48.83
2017-11-29T08:13:42.645Z,48.87
2017-11-29T08:16:09.018Z,46.33
2017-11-29T08:18:35.376Z,51.63
2017-11-29T08:21:01.746Z,49.03
2017-11-29T08:23:28.094Z,45.13
2017-11-29T08:25:54.634Z,49.87
2017-11-29T08:28:21.116Z,48.07
2017-11-29T08:30:47.735Z,48.40
2017-11-29T08:33:14.262Z,42.17
2017-11-29T08:35:40.695Z,33.83
2017-11-29T08:38:07.219Z,31.70
2017-11-29T08:40:33.866Z,33.47
2017-11-29T08:43:00.477Z,32.67
2017-11-29T08:45:26.894Z,30.30
2017-11-29T08:47:53.428Z,27.57
2017-11-29T08:50:19.917Z,26.83
2017-11-29T08:52:46.345Z,28.83
2017-11-29T08:55:12.905Z,29.43
2017-11-29T08:57:39.387Z,25.17
2017-11-29T09:00:05.806Z,29.73
2017-11-29T09:02:32.282Z,28.37
2017-11-29T09:04:58.737Z,27.17
2017-11-29T09:07:25.283Z,28.13
2017-11-29T09:09:51.766Z,22.30
2017-11-29T09:12:18.183Z,21.37
2017-11-29T09:14:44.817Z,22.03
2017-11-29T09:17:11.290Z,20.90
2017-11-29T09:19:37.824Z,21.50
2017-11-29T09:22:04.290Z,20.03
2017-11-29T09:24:30.768Z,20.13
2017-11-29T09:26:58.098Z,22.80
2017-11-29T09:29:24.542Z,21.27
2017-11-29T09:31:51.286Z,20.20
2017-11-29T09:34:17.742Z,17.80
2017-11-29T09:36:44.192Z,16.53
2017-11-29T09:39:10.691Z,17.37
2017-11-29T09:41:37.337Z,17.33
2017-11-29T09:44:03.798Z,18.20
2017-11-29T09:46:30.246Z,17.43
2017-11-29T09:48:56.708Z,16.33
2017-11-29T09:51:23.158Z,16.87
2017-11-29T09:53:49.689Z,18.90
2017-11-29T09:56:16.201Z,18.67
2017-11-29T09:58:42.756Z,19.27
2017-11-29T10:01:09.242Z,19.13
2017-11-29T10:03:35.681Z,16.77
2017-11-29T10:06:02.174Z,18.10
2017-11-29T10:08:28.646Z,17.80
2017-11-29T10:10:55.081Z,18.10
2017-11-29T10:13:21.535Z,17.47
2017-11-29T10:15:48.020Z,18.97
2017-11-29T10:18:14.590Z,17.93
2017-11-29T10:20:41.025Z,19.90
2017-11-29T10:23:07.498Z,18.60
2017-11-29T10:25:33.982Z,17.33
2017-11-29T10:28:00.422Z,20.93
2017-11-29T10:30:27.090Z,19.33
2017-11-29T10:32:53.554Z,18.47
2017-11-29T10:35:20.051Z,16.87
2017-11-29T10:37:46.602Z,21.47
2017-11-29T10:40:13.116Z,21.73
2017-11-29T10:42:39.552Z,18.93
2017-11-29T10:45:06.170Z,22.57
2017-11-29T10:47:32.597Z,20.57
2017-11-29T10:49:59.037Z,20.23
2017-11-29T10:52:25.523Z,20.43
2017-11-29T10:54:51.950Z,17.90
2017-11-29T10:57:18.408Z,18.93
2017-11-29T10:59:44.864Z,20.07
2017-11-29T11:02:11.328Z,19.70
2017-11-29T11:04:37.791Z,17.60
2017-11-29T11:07:04.652Z,20.53
2017-11-29T11:09:31.328Z,21.27
2017-11-29T11:11:57.988Z,20.13
2017-11-29T11:14:24.465Z,19.47
2017-11-29T11:16:50.897Z,22.83
2017-11-29T11:19:17.331Z,21.20
2017-11-29T11:21:43.833Z,20.80
2017-11-29T11:24:10.359Z,19.77
2017-11-29T11:26:36.853Z,19.47
2017-11-29T11:29:03.396Z,19.53
2017-11-29T11:31:29.837Z,17.93
2017-11-29T11:33:56.323Z,18.53
2017-11-29T11:36:22.850Z,18.07
2017-11-29T11:38:49.353Z,19.03
2017-11-29T11:41:15.851Z,19.97
2017-11-29T11:43:42.328Z,21.87
2017-11-29T11:46:08.787Z,19.93
2017-11-29T11:48:35.231Z,22.70
2017-11-29T11:51:01.707Z,20.80
2017-11-29T11:53:28.269Z,19.10
2017-11-29T11:55:54.722Z,17.33
2017-11-29T11:58:21.214Z,16.97
2017-11-29T12:00:47.716Z,16.17
2017-11-29T12:03:14.258Z,16.30
2017-11-29T12:05:40.746Z,17.10
2017-11-29T12:08:07.165Z,16.97
2017-11-29T12:10:33.607Z,18.20
2017-11-29T12:13:00.096Z,16.90
2017-11-29T12:15:26.507Z,15.67
2017-11-29T12:17:53.078Z,14.27
2017-11-29T12:20:19.589Z,14.13
2017-11-29T12:22:46.082Z,14.80
2017-11-29T12:25:12.502Z,13.97
2017-11-29T12:27:39.010Z,15.10
2017-11-29T12:30:05.458Z,14.23
2017-11-29T12:32:31.882Z,14.43
2017-11-29T12:34:58.382Z,16.23
2017-11-29T12:37:24.848Z,20.23
2017-11-29T12:39:51.281Z,19.47
2017-11-29T12:42:17.887Z,17.57
2017-11-29T12:44:44.495Z,18.93
2017-11-29T12:47:10.979Z,18.00
2017-11-29T12:49:49.752Z,19.37
2017-11-29T12:52:16.066Z,21.20
2017-11-29T12:54:42.473Z,19.23
2017-11-29T12:57:08.951Z,22.43
2017-11-29T12:59:35.362Z,21.63
2017-11-29T13:02:01.992Z,21.17
2017-11-29T13:04:28.667Z,20.87
2017-11-29T13:06:55.298Z,23.53
2017-11-29T13:09:21.838Z,18.23
2017-11-29T13:11:48.346Z,23.10
2017-11-29T13:14:14.801Z,20.70
2017-11-29T13:16:41.235Z,19.70
2017-11-29T13:19:07.769Z,21.33
2017-11-29T13:21:34.177Z,20.27
2017-11-29T13:24:00.757Z,20.30
2017-11-29T13:26:27.580Z,19.77
2017-11-29T13:28:54.043Z,17.60
2017-11-29T13:31:20.486Z,18.57
2017-11-29T13:33:46.966Z,17.63
2017-11-29T13:36:13.389Z,18.87
2017-11-29T13:38:39.970Z,22.90
2017-11-29T13:41:06.448Z,21.90
2017-11-29T13:43:32.874Z,23.57
2017-11-29T13:45:59.331Z,21.73
2017-11-29T13:48:26.128Z,23.70
2017-11-29T13:50:52.557Z,25.30
2017-11-29T13:53:19.010Z,21.87
2017-11-29T13:55:45.497Z,19.70
2017-11-29T13:58:11.935Z,20.73
2017-11-29T14:00:38.367Z,21.70
2017-11-29T14:03:04.841Z,22.93
2017-11-29T14:05:31.281Z,20.77
2017-11-29T14:07:57.734Z,21.13
2017-11-29T14:10:24.182Z,20.47
2017-11-29T14:12:50.515Z,21.03
2017-11-29T14:15:16.893Z,25.77
2017-11-29T14:17:43.279Z,26.10
2017-11-29T14:20:09.625Z,24.73
2017-11-29T14:22:35.987Z,22.00
2017-11-29T14:25:02.373Z,25.00
2017-11-29T14:27:28.757Z,26.30
2017-11-29T14:29:55.206Z,26.23
2017-11-29T14:32:21.758Z,30.67
2017-11-29T14:34:48.121Z,29.43
2017-11-29T14:37:14.486Z,29.87
2017-11-29T14:39:41.245Z,29.00
2017-11-29T14:42:07.642Z,25.57
2017-11-29T14:44:33.981Z,22.93
2017-11-29T14:47:00.375Z,29.97
2017-11-29T14:49:27.308Z,35.90
2017-11-29T14:51:54.864Z,36.10
2017-11-29T14:54:24.628Z,38.93
2017-11-29T14:56:53.048Z,47.20
2017-11-29T14:59:24.455Z,46.63
2017-11-29T15:01:51.940Z,47.27
2017-11-29T15:04:24.256Z,46.13
2017-11-29T15:06:53.925Z,46.40
2017-11-29T15:09:24.576Z,55.80
2017-11-29T15:11:53.456Z,30.57
2017-11-29T15:14:23.447Z,48.10
2017-11-29T15:16:50.062Z,65.40
2017-11-29T15:19:16.409Z,91.87
2017-11-29T15:21:42.794Z,86.13
2017-11-29T15:24:09.185Z,70.90
2017-11-29T15:26:35.518Z,73.87
2017-11-29T15:29:01.930Z,66.00
2017-11-29T15:31:28.356Z,75.87
2017-11-29T15:33:54.776Z,120.70
2017-11-29T15:36:21.241Z,95.47
2017-11-29T15:38:47.640Z,91.73
2017-11-29T15:41:14.038Z,87.40
2017-11-29T15:43:40.535Z,77.73
2017-11-29T15:46:07.177Z,72.60
2017-11-29T15:48:33.653Z,65.37
2017-11-29T15:51:00.157Z,66.93
2017-11-29T15:53:26.556Z,83.40
2017-11-29T15:55:52.933Z,81.07
2017-11-29T15:58:19.326Z,79.47
2017-11-29T16:00:45.750Z,81.53
2017-11-29T16:03:12.145Z,81.03
2017-11-29T16:05:38.570Z,78.80
2017-11-29T16:08:04.943Z,79.97
2017-11-29T16:10:31.353Z,88.27
2017-11-29T16:12:57.827Z,88.33
2017-11-29T16:15:24.219Z,85.03
2017-11-29T16:17:50.676Z,115.83
2017-11-29T16:20:17.153Z,106.97
2017-11-29T16:22:43.525Z,99.57
2017-11-29T16:25:09.955Z,100.27
2017-11-29T16:27:36.569Z,80.80
2017-11-29T16:30:03.030Z,70.53
2017-11-29T16:32:29.435Z,62.07
2017-11-29T16:34:55.891Z,59.33
2017-11-29T16:37:22.325Z,62.87
2017-11-29T16:39:48.758Z,71.30
2017-11-29T16:42:15.815Z,108.40
2017-11-29T16:44:42.982Z,110.77
2017-11-29T16:47:09.349Z,95.17
2017-11-29T16:49:35.787Z,97.80
2017-11-29T16:52:02.206Z,94.40
2017-11-29T16:54:28.598Z,90.73
2017-11-29T16:56:54.992Z,88.37
2017-11-29T16:59:21.406Z,85.33
2017-11-29T17:01:47.759Z,84.57
2017-11-29T17:04:14.220Z,87.47
2017-11-29T17:06:40.693Z,92.53
2017-11-29T17:09:07.059Z,97.67
2017-11-29T17:11:33.509Z,96.13
2017-11-29T17:13:59.977Z,97.87
2017-11-29T17:16:26.365Z,93.30
2017-11-29T17:18:52.808Z,85.00
2017-11-29T17:21:19.162Z,79.60
2017-11-29T17:23:45.559Z,78.20
2017-11-29T17:26:11.974Z,86.67
2017-11-29T17:28:38.345Z,93.77
2017-11-29T17:31:04.777Z,96.33
2017-11-29T17:33:31.238Z,104.03
2017-11-29T17:35:57.689Z,107.30
2017-11-29T17:38:24.079Z,98.57
2017-11-29T17:40:50.601Z,104.20
2017-11-29T17:43:16.968Z,100.20
2017-11-29T17:45:43.332Z,93.67
2017-11-29T17:48:09.735Z,85.90
2017-11-29T17:50:36.114Z,90.17
2017-11-29T17:53:02.497Z,78.37
2017-11-29T17:55:28.954Z,78.30
2017-11-29T17:57:55.497Z,74.80
2017-11-29T18:00:21.928Z,69.40
2017-11-29T18:02:48.410Z,65.80
2017-11-29T18:05:14.823Z,65.83
2017-11-29T18:07:41.199Z,62.10
2017-11-29T18:10:07.638Z,63.53
2017-11-29T18:12:34.066Z,64.60
2017-11-29T18:15:00.496Z,64.53
2017-11-29T18:17:27.036Z,61.33
2017-11-29T18:19:53.498Z,58.77
2017-11-29T18:22:19.940Z,58.63
2017-11-29T18:24:46.456Z,59.67
2017-11-29T18:27:12.850Z,63.03
2017-11-29T18:29:39.279Z,67.80
2017-11-29T18:32:05.750Z,73.50
2017-11-29T18:34:32.122Z,73.57
2017-11-29T18:36:58.542Z,65.40
2017-11-29T18:39:24.939Z,66.63
2017-11-29T18:41:52.083Z,66.67
2017-11-29T18:44:23.455Z,66.63
2017-11-29T18:46:52.861Z,69.47
2017-11-29T18:49:24.205Z,75.07
2017-11-29T18:51:53.119Z,77.93
2017-11-29T18:54:20.761Z,75.63
2017-11-29T18:56:48.527Z,67.20
2017-11-29T18:59:16.786Z,62.57
2017-11-29T19:01:44.243Z,62.40
2017-11-29T19:04:11.898Z,61.33
2017-11-29T19:06:38.435Z,64.50
2017-11-29T19:09:04.875Z,64.07
2017-11-29T19:11:31.288Z,63.47
2017-11-29T19:13:57.746Z,64.63
2017-11-29T19:16:24.206Z,71.40
2017-11-29T19:18:50.618Z,75.87
2017-11-29T19:21:17.110Z,75.40
2017-11-29T19:23:43.596Z,77.87
2017-11-29T19:26:10.011Z,74.07
2017-11-29T19:28:36.454Z,60.33
2017-11-29T19:31:02.949Z,45.23
2017-11-29T19:33:29.612Z,34.60
2017-11-29T19:35:56.054Z,28.83
2017-11-29T19:38:22.481Z,26.13
2017-11-29T19:40:48.910Z,25.07
2017-11-29T19:43:15.293Z,23.80
2017-11-29T19:45:41.699Z,24.27
2017-11-29T19:48:08.081Z,24.37
2017-11-29T19:50:34.519Z,25.47
2017-11-29T19:53:00.883Z,32.10
2017-11-29T19:55:27.253Z,38.77
2017-11-29T19:57:53.722Z,46.57
2017-11-29T20:00:20.081Z,51.47
2017-11-29T20:02:46.543Z,58.93
2017-11-29T20:05:13.087Z,62.97
2017-11-29T20:07:39.475Z,63.77
2017-11-29T20:10:05.976Z,71.17
2017-11-29T20:12:32.541Z,65.60
2017-11-29T20:14:59.033Z,65.60
2017-11-29T20:17:25.614Z,69.27
2017-11-29T20:19:52.083Z,66.50
2017-11-29T20:22:18.684Z,65.60
2017-11-29T20:24:45.663Z,71.50
2017-11-29T20:27:14.049Z,70.67
2017-11-29T20:29:41.902Z,69.37
2017-11-29T20:32:10.605Z,77.97
2017-11-29T20:34:39.198Z,69.50
2017-11-29T20:37:07.431Z,59.90
2017-11-29T20:39:34.423Z,57.73
2017-11-29T20:42:01.373Z,62.33
2017-11-29T20:44:27.882Z,64.67
2017-11-29T20:46:54.248Z,63.37
2017-11-29T20:49:20.721Z,66.83
2017-11-29T20:51:47.114Z,64.87
2017-11-29T20:54:13.500Z,58.10
2017-11-29T20:56:39.942Z,68.13
2017-11-29T20:59:06.298Z,64.13
2017-11-29T21:01:32.729Z,60.40
2017-11-29T21:03:59.247Z,59.70
2017-11-29T21:06:25.891Z,61.90
2017-11-29T21:08:52.308Z,67.40
2017-11-29T21:11:18.834Z,78.33
2017-11-29T21:13:45.219Z,87.90
2017-11-29T21:16:11.646Z,87.97
2017-11-29T21:18:38.128Z,66.60
2017-11-29T21:21:04.489Z,60.43
2017-11-29T21:23:30.840Z,58.30
2017-11-29T21:25:57.260Z,59.93
2017-11-29T21:28:23.681Z,65.73
2017-11-29T21:30:50.102Z,67.67
2017-11-29T21:33:16.495Z,67.43
2017-11-29T21:35:42.863Z,67.43
2017-11-29T21:38:09.423Z,72.20
2017-11-29T21:40:35.855Z,71.13
2017-11-29T21:43:02.206Z,74.13
2017-11-29T21:45:28.666Z,75.80
2017-11-29T21:47:55.100Z,66.43
2017-11-29T21:50:21.513Z,62.80
2017-11-29T21:52:47.925Z,59.60
2017-11-29T21:55:14.330Z,58.20
2017-11-29T21:57:40.667Z,58.63
2017-11-29T22:00:07.026Z,54.53
2017-11-29T22:02:34.230Z,51.83
2017-11-29T22:05:01.251Z,48.30
2017-11-29T22:07:27.660Z,48.43
2017-11-29T22:09:54.045Z,47.87
2017-11-29T22:12:20.380Z,49.07
2017-11-29T22:14:46.747Z,50.00
2017-11-29T22:17:13.183Z,50.67
2017-11-29T22:19:39.578Z,50.70
2017-11-29T22:22:06.005Z,51.13
2017-11-29T22:24:32.377Z,52.57
2017-11-29T22:26:58.764Z,55.33
2017-11-29T22:29:25.176Z,56.33
2017-11-29T22:31:51.586Z,55.80
2017-11-29T22:34:17.964Z,52.83
2017-11-29T22:36:44.342Z,50.77
2017-11-29T22:39:10.729Z,51.60
2017-11-29T22:41:37.105Z,53.17
2017-11-29T22:44:03.487Z,52.93
2017-11-29T22:46:29.905Z,54.37
2017-11-29T22:48:56.284Z,54.27
2017-11-29T22:51:22.788Z,54.33
2017-11-29T22:53:49.239Z,57.03
2017-11-29T22:56:15.586Z,60.43
2017-11-29T22:58:41.971Z,66.97
2017-11-29T23:01:08.379Z,66.50
2017-11-29T23:03:34.750Z,65.07
2017-11-29T23:06:01.101Z,67.07
2017-11-29T23:08:27.511Z,72.13
2017-11-29T23:10:53.870Z,71.53
2017-11-29T23:13:20.260Z,72.80
2017-11-29T23:15:46.647Z,67.60
2017-11-29T23:18:13.021Z,68.67
2017-11-29T23:20:39.390Z,66.87
2017-11-29T23:23:05.803Z,69.97
2017-11-29T23:25:32.246Z,71.60
2017-11-29T23:27:58.683Z,69.53
2017-11-29T23:30:25.089Z,69.37
2017-11-29T23:32:51.468Z,71.77
2017-11-29T23:35:17.841Z,68.87
2017-11-29T23:37:44.261Z,68.60
2017-11-29T23:40:10.609Z,69.50
2017-11-29T23:42:37.069Z,69.57
2017-11-29T23:45:03.533Z,71.07
2017-11-29T23:47:29.922Z,69.47
2017-11-29T23:49:56.336Z,70.87
2017-11-29T23:52:22.816Z,72.00
2017-11-29T23:54:49.205Z,68.90
2017-11-29T23:57:15.574Z,66.87
2017-11-29T23:59:41.965Z,58.67
